Terminal Aerodrome Forecast
Issued by NWS Atlanta, GA

Home | Current Version | Previous Version | Text Only | Print | Product List | Glossary On
Versions: 1 2 3 4 5 6 7 8 9 10 11 12 13 14 15 16 17 18 19 20 21
000
FTUS42 KFFC 041726
TAFMCN
TAF
KMCN 041726Z 0418/0518 27005KT P6SM VCSH SCT050
     FM050200 20003KT P6SM FEW090 FEW250
     FM051000 00000KT 6SM BR SCT250
     FM051500 26005KT P6SM SCT050=

USA.gov is the U.S. government's official web portal to all federal, state and local government web resources and services.